sensor_id;sensor_type;location;lat;lon;timestamp;pressure;altitude;pressure_sealevel;temperature;humidity
64080;BME280;51042;49.696;10.808;2023-03-12T00:00:04;98125.56;;;-3.60;100.00
64080;BME280;51042;49.696;10.808;2023-03-12T00:02:32;98126.25;;;-3.63;100.00
64080;BME280;51042;49.696;10.808;2023-03-12T00:04:57;98126.59;;;-3.64;100.00
64080;BME280;51042;49.696;10.808;2023-03-12T00:07:22;98130.84;;;-3.63;100.00
64080;BME280;51042;49.696;10.808;2023-03-12T00:09:47;98132.31;;;-3.66;100.00
64080;BME280;51042;49.696;10.808;2023-03-12T00:12:13;98137.94;;;-3.71;100.00
64080;BME280;51042;49.696;10.808;2023-03-12T00:14:38;98146.31;;;-3.73;100.00
64080;BME280;51042;49.696;10.808;2023-03-12T00:17:03;98134.31;;;-3.79;100.00
64080;BME280;51042;49.696;10.808;2023-03-12T00:19:28;98141.66;;;-3.76;100.00
64080;BME280;51042;49.696;10.808;2023-03-12T00:21:53;98142.78;;;-3.77;100.00
64080;BME280;51042;49.696;10.808;2023-03-12T00:24:18;98142.34;;;-3.79;100.00
64080;BME280;51042;49.696;10.808;2023-03-12T00:26:44;98132.41;;;-3.78;100.00
64080;BME280;51042;49.696;10.808;2023-03-12T00:29:09;98145.38;;;-3.80;100.00
64080;BME280;51042;49.696;10.808;2023-03-12T00:31:34;98150.31;;;-3.82;100.00
64080;BME280;51042;49.696;10.808;2023-03-12T00:34:00;98150.66;;;-3.84;100.00
64080;BME280;51042;49.696;10.808;2023-03-12T00:36:26;98147.47;;;-3.89;100.00
64080;BME280;51042;49.696;10.808;2023-03-12T00:38:52;98140.09;;;-3.92;100.00
64080;BME280;51042;49.696;10.808;2023-03-12T00:41:18;98135.44;;;-3.95;100.00
64080;BME280;51042;49.696;10.808;2023-03-12T00:43:44;98127.75;;;-3.97;100.00
64080;BME280;51042;49.696;10.808;2023-03-12T00:46:09;98138.13;;;-3.95;100.00
64080;BME280;51042;49.696;10.808;2023-03-12T00:48:34;98136.72;;;-3.89;100.00
64080;BME280;51042;49.696;10.808;2023-03-12T00:50:59;98142.34;;;-3.94;100.00
64080;BME280;51042;49.696;10.808;2023-03-12T00:53:25;98138.38;;;-4.00;100.00
64080;BME280;51042;49.696;10.808;2023-03-12T00:55:50;98133.03;;;-4.00;100.00
64080;BME280;51042;49.696;10.808;2023-03-12T00:58:15;98132.13;;;-4.04;100.00
64080;BME280;51042;49.696;10.808;2023-03-12T01:00:40;98132.84;;;-4.07;100.00
64080;BME280;51042;49.696;10.808;2023-03-12T01:03:05;98140.03;;;-4.12;100.00
64080;BME280;51042;49.696;10.808;2023-03-12T01:05:31;98138.34;;;-4.16;100.00
64080;BME280;51042;49.696;10.808;2023-03-12T01:08:01;98130.25;;;-4.20;100.00
64080;BME280;51042;49.696;10.808;2023-03-12T01:10:26;98135.50;;;-4.23;100.00
64080;BME280;51042;49.696;10.808;2023-03-12T01:12:52;98132.41;;;-4.25;100.00
64080;BME280;51042;49.696;10.808;2023-03-12T01:15:17;98141.53;;;-4.26;100.00
64080;BME280;51042;49.696;10.808;2023-03-12T01:17:43;98144.16;;;-4.30;100.00
64080;BME280;51042;49.696;10.808;2023-03-12T01:20:08;98143.25;;;-4.34;100.00
64080;BME280;51042;49.696;10.808;2023-03-12T01:22:34;98139.78;;;-4.34;100.00
64080;BME280;51042;49.696;10.808;2023-03-12T01:24:59;98139.78;;;-4.34;100.00
64080;BME280;51042;49.696;10.808;2023-03-12T01:27:24;98145.16;;;-4.34;100.00
64080;BME280;51042;49.696;10.808;2023-03-12T01:29:49;98149.72;;;-4.35;100.00
64080;BME280;51042;49.696;10.808;2023-03-12T01:32:15;98139.00;;;-4.35;100.00
64080;BME280;51042;49.696;10.808;2023-03-12T01:34:41;98145.50;;;-4.36;100.00
64080;BME280;51042;49.696;10.808;2023-03-12T01:37:06;98137.38;;;-4.39;100.00
64080;BME280;51042;49.696;10.808;2023-03-12T01:39:31;98142.38;;;-4.38;100.00
64080;BME280;51042;49.696;10.808;2023-03-12T01:41:56;98139.72;;;-4.38;100.00
64080;BME280;51042;49.696;10.808;2023-03-12T01:44:22;98137.81;;;-4.37;100.00
64080;BME280;51042;49.696;10.808;2023-03-12T01:46:47;98134.81;;;-4.36;100.00
64080;BME280;51042;49.696;10.808;2023-03-12T01:49:26;98129.44;;;-4.36;100.00
64080;BME280;51042;49.696;10.808;2023-03-12T01:54:38;98123.91;;;-4.27;100.00
64080;BME280;51042;49.696;10.808;2023-03-12T01:57:05;98128.69;;;-4.21;100.00
64080;BME280;51042;49.696;10.808;2023-03-12T01:59:34;98125.25;;;-4.05;100.00
64080;BME280;51042;49.696;10.808;2023-03-12T02:02:02;98126.78;;;-4.04;100.00
64080;BME280;51042;49.696;10.808;2023-03-12T02:04:27;98119.97;;;-4.02;100.00
64080;BME280;51042;49.696;10.808;2023-03-12T02:07:02;98124.91;;;-3.88;100.00
64080;BME280;51042;49.696;10.808;2023-03-12T02:09:28;98115.19;;;-3.77;100.00
64080;BME280;51042;49.696;10.808;2023-03-12T02:11:54;98122.19;;;-3.73;100.00
64080;BME280;51042;49.696;10.808;2023-03-12T02:14:19;98122.25;;;-3.69;100.00
64080;BME280;51042;49.696;10.808;2023-03-12T02:16:45;98115.88;;;-3.64;100.00
64080;BME280;51042;49.696;10.808;2023-03-12T02:19:19;98117.16;;;-3.58;100.00
64080;BME280;51042;49.696;10.808;2023-03-12T02:21:46;98120.00;;;-3.51;100.00
64080;BME280;51042;49.696;10.808;2023-03-12T02:26:36;98120.16;;;-3.44;100.00
64080;BME280;51042;49.696;10.808;2023-03-12T02:29:03;98124.13;;;-3.38;100.00
64080;BME280;51042;49.696;10.808;2023-03-12T02:31:30;98124.63;;;-3.33;100.00
64080;BME280;51042;49.696;10.808;2023-03-12T02:33:56;98124.63;;;-3.33;100.00
64080;BME280;51042;49.696;10.808;2023-03-12T02:36:22;98130.09;;;-3.29;100.00
64080;BME280;51042;49.696;10.808;2023-03-12T02:38:48;98131.72;;;-3.24;100.00
64080;BME280;51042;49.696;10.808;2023-03-12T02:43:51;98135.34;;;-3.17;100.00
64080;BME280;51042;49.696;10.808;2023-03-12T02:46:20;98136.19;;;-3.13;100.00
64080;BME280;51042;49.696;10.808;2023-03-12T02:48:46;98136.25;;;-3.09;100.00
64080;BME280;51042;49.696;10.808;2023-03-12T02:51:11;98135.56;;;-3.06;100.00
64080;BME280;51042;49.696;10.808;2023-03-12T02:53:36;98137.53;;;-3.03;100.00
64080;BME280;51042;49.696;10.808;2023-03-12T02:56:01;98131.47;;;-3.00;100.00
64080;BME280;51042;49.696;10.808;2023-03-12T02:58:27;98140.00;;;-2.95;100.00
64080;BME280;51042;49.696;10.808;2023-03-12T03:00:52;98129.28;;;-2.95;100.00
64080;BME280;51042;49.696;10.808;2023-03-12T03:03:17;98133.88;;;-2.95;100.00
64080;BME280;51042;49.696;10.808;2023-03-12T03:05:42;98126.25;;;-2.93;100.00
64080;BME280;51042;49.696;10.808;2023-03-12T03:08:07;98135.44;;;-2.94;100.00
64080;BME280;51042;49.696;10.808;2023-03-12T03:10:33;98135.09;;;-2.93;100.00
64080;BME280;51042;49.696;10.808;2023-03-12T03:12:58;98136.22;;;-2.94;100.00
64080;BME280;51042;49.696;10.808;2023-03-12T03:15:23;98136.22;;;-2.94;100.00
64080;BME280;51042;49.696;10.808;2023-03-12T03:17:49;98138.16;;;-2.91;100.00
64080;BME280;51042;49.696;10.808;2023-03-12T03:20:14;98142.84;;;-2.88;100.00
64080;BME280;51042;49.696;10.808;2023-03-12T03:22:39;98136.75;;;-2.84;100.00
64080;BME280;51042;49.696;10.808;2023-03-12T03:25:06;98138.66;;;-2.85;100.00
64080;BME280;51042;49.696;10.808;2023-03-12T03:27:31;98131.41;;;-2.84;100.00
64080;BME280;51042;49.696;10.808;2023-03-12T03:29:56;98137.13;;;-2.86;100.00
64080;BME280;51042;49.696;10.808;2023-03-12T03:32:21;98134.06;;;-2.84;100.00
64080;BME280;51042;49.696;10.808;2023-03-12T03:34:47;98135.63;;;-2.83;100.00
64080;BME280;51042;49.696;10.808;2023-03-12T03:37:12;98143.34;;;-2.82;100.00
64080;BME280;51042;49.696;10.808;2023-03-12T03:39:37;98144.19;;;-2.78;100.00
64080;BME280;51042;49.696;10.808;2023-03-12T03:42:02;98144.63;;;-2.76;100.00
64080;BME280;51042;49.696;10.808;2023-03-12T03:44:28;98147.72;;;-2.74;100.00
64080;BME280;51042;49.696;10.808;2023-03-12T03:46:54;98147.38;;;-2.72;100.00
64080;BME280;51042;49.696;10.808;2023-03-12T03:49:19;98146.66;;;-2.69;100.00
64080;BME280;51042;49.696;10.808;2023-03-12T03:51:44;98147.44;;;-2.69;100.00
64080;BME280;51042;49.696;10.808;2023-03-12T03:54:10;98146.28;;;-2.68;100.00
64080;BME280;51042;49.696;10.808;2023-03-12T03:56:35;98152.88;;;-2.65;100.00
64080;BME280;51042;49.696;10.808;2023-03-12T03:59:00;98147.94;;;-2.63;100.00
64080;BME280;51042;49.696;10.808;2023-03-12T04:01:26;98149.13;;;-2.61;100.00
64080;BME280;51042;49.696;10.808;2023-03-12T04:03:51;98145.75;;;-2.58;100.00
64080;BME280;51042;49.696;10.808;2023-03-12T04:06:16;98144.25;;;-2.55;100.00
64080;BME280;51042;49.696;10.808;2023-03-12T04:08:41;98139.66;;;-2.55;100.00
64080;BME280;51042;49.696;10.808;2023-03-12T04:11:07;98137.31;;;-2.56;100.00
64080;BME280;51042;49.696;10.808;2023-03-12T04:13:33;98140.00;;;-2.56;100.00
64080;BME280;51042;49.696;10.808;2023-03-12T04:15:58;98139.66;;;-2.55;100.00
64080;BME280;51042;49.696;10.808;2023-03-12T04:18:23;98138.88;;;-2.55;100.00
64080;BME280;51042;49.696;10.808;2023-03-12T04:20:48;98138.88;;;-2.55;100.00
64080;BME280;51042;49.696;10.808;2023-03-12T04:23:13;98130.91;;;-2.52;100.00
64080;BME280;51042;49.696;10.808;2023-03-12T04:25:39;98137.88;;;-2.47;100.00
64080;BME280;51042;49.696;10.808;2023-03-12T04:28:04;98136.75;;;-2.46;100.00
64080;BME280;51042;49.696;10.808;2023-03-12T04:30:29;98137.94;;;-2.43;100.00
64080;BME280;51042;49.696;10.808;2023-03-12T04:32:54;98136.81;;;-2.42;100.00
64080;BME280;51042;49.696;10.808;2023-03-12T04:35:20;98138.38;;;-2.41;100.00
64080;BME280;51042;49.696;10.808;2023-03-12T04:37:45;98140.28;;;-2.42;100.00
64080;BME280;51042;49.696;10.808;2023-03-12T04:40:10;98138.31;;;-2.45;100.00
64080;BME280;51042;49.696;10.808;2023-03-12T04:42:36;98143.59;;;-2.49;100.00
64080;BME280;51042;49.696;10.808;2023-03-12T04:45:02;98138.59;;;-2.50;100.00
64080;BME280;51042;49.696;10.808;2023-03-12T04:47:29;98134.38;;;-2.51;100.00
64080;BME280;51042;49.696;10.808;2023-03-12T04:49:54;98133.59;;;-2.52;100.00
64080;BME280;51042;49.696;10.808;2023-03-12T04:52:19;98125.09;;;-2.54;100.00
64080;BME280;51042;49.696;10.808;2023-03-12T04:54:44;98123.13;;;-2.57;100.00
64080;BME280;51042;49.696;10.808;2023-03-12T04:57:09;98129.19;;;-2.60;100.00
64080;BME280;51042;49.696;10.808;2023-03-12T04:59:34;98130.41;;;-2.57;100.00
64080;BME280;51042;49.696;10.808;2023-03-12T05:02:00;98133.88;;;-2.57;100.00
64080;BME280;51042;49.696;10.808;2023-03-12T05:04:25;98128.06;;;-2.59;100.00
64080;BME280;51042;49.696;10.808;2023-03-12T05:06:50;98136.81;;;-2.62;100.00
64080;BME280;51042;49.696;10.808;2023-03-12T05:09:15;98128.03;;;-2.62;100.00
64080;BME280;51042;49.696;10.808;2023-03-12T05:11:41;98132.19;;;-2.65;100.00
64080;BME280;51042;49.696;10.808;2023-03-12T05:14:07;98142.09;;;-2.69;100.00
64080;BME280;51042;49.696;10.808;2023-03-12T05:16:32;98144.28;;;-2.74;100.00
64080;BME280;51042;49.696;10.808;2023-03-12T05:18:57;98136.22;;;-2.74;100.00
64080;BME280;51042;49.696;10.808;2023-03-12T05:21:23;98125.53;;;-2.71;100.00
64080;BME280;51042;49.696;10.808;2023-03-12T05:23:48;98123.78;;;-2.63;100.00
64080;BME280;51042;49.696;10.808;2023-03-12T05:26:14;98129.69;;;-2.54;100.00
64080;BME280;51042;49.696;10.808;2023-03-12T05:28:40;98130.25;;;-2.45;100.00
64080;BME280;51042;49.696;10.808;2023-03-12T05:31:07;98125.44;;;-2.36;100.00
64080;BME280;51042;49.696;10.808;2023-03-12T05:33:33;98117.50;;;-2.29;100.00
64080;BME280;51042;49.696;10.808;2023-03-12T05:35:58;98122.91;;;-2.25;100.00
64080;BME280;51042;49.696;10.808;2023-03-12T05:38:23;98117.97;;;-2.23;100.00
64080;BME280;51042;49.696;10.808;2023-03-12T05:40:52;98124.47;;;-2.24;100.00
64080;BME280;51042;49.696;10.808;2023-03-12T05:43:17;98127.16;;;-2.24;100.00
64080;BME280;51042;49.696;10.808;2023-03-12T05:45:43;98129.44;;;-2.26;100.00
64080;BME280;51042;49.696;10.808;2023-03-12T05:48:08;98132.13;;;-2.26;100.00
64080;BME280;51042;49.696;10.808;2023-03-12T05:50:33;98131.38;;;-2.27;100.00
64080;BME280;51042;49.696;10.808;2023-03-12T05:52:58;98137.50;;;-2.26;100.00
64080;BME280;51042;49.696;10.808;2023-03-12T05:55:23;98137.50;;;-2.26;100.00
64080;BME280;51042;49.696;10.808;2023-03-12T05:57:48;98137.50;;;-2.26;100.00
64080;BME280;51042;49.696;10.808;2023-03-12T06:00:14;98139.34;;;-2.30;100.00
64080;BME280;51042;49.696;10.808;2023-03-12T06:02:39;98135.97;;;-2.27;100.00
64080;BME280;51042;49.696;10.808;2023-03-12T06:05:04;98134.88;;;-2.23;100.00
64080;BME280;51042;49.696;10.808;2023-03-12T06:07:30;98129.63;;;-2.16;100.00
64080;BME280;51042;49.696;10.808;2023-03-12T06:09:55;98129.50;;;-2.00;100.00
64080;BME280;51042;49.696;10.808;2023-03-12T06:12:20;98122.56;;;-1.78;100.00
64080;BME280;51042;49.696;10.808;2023-03-12T06:14:45;98123.56;;;-1.63;100.00
64080;BME280;51042;49.696;10.808;2023-03-12T06:17:10;98135.16;;;-1.59;100.00
64080;BME280;51042;49.696;10.808;2023-03-12T06:19:36;98129.94;;;-1.49;100.00
64080;BME280;51042;49.696;10.808;2023-03-12T06:22:01;98136.28;;;-1.38;100.00
64080;BME280;51042;49.696;10.808;2023-03-12T06:24:26;98147.75;;;-1.14;100.00
64080;BME280;51042;49.696;10.808;2023-03-12T06:26:51;98145.78;;;-0.88;100.00
64080;BME280;51042;49.696;10.808;2023-03-12T06:29:16;98154.88;;;-0.69;100.00
64080;BME280;51042;49.696;10.808;2023-03-12T06:31:41;98158.06;;;-0.60;100.00
64080;BME280;51042;49.696;10.808;2023-03-12T06:34:07;98136.63;;;-0.50;99.32
64080;BME280;51042;49.696;10.808;2023-03-12T06:36:34;98124.66;;;-0.52;97.55
64080;BME280;51042;49.696;10.808;2023-03-12T06:38:59;98128.19;;;-0.48;97.96
64080;BME280;51042;49.696;10.808;2023-03-12T06:41:24;98131.34;;;-0.39;95.96
64080;BME280;51042;49.696;10.808;2023-03-12T06:43:49;98125.72;;;-0.27;96.11
64080;BME280;51042;49.696;10.808;2023-03-12T06:46:16;98134.00;;;-0.06;94.48
64080;BME280;51042;49.696;10.808;2023-03-12T06:48:41;98128.75;;;0.09;93.77
64080;BME280;51042;49.696;10.808;2023-03-12T06:51:07;98122.78;;;-0.11;89.27
64080;BME280;51042;49.696;10.808;2023-03-12T06:53:33;98134.72;;;-0.12;90.03
64080;BME280;51042;49.696;10.808;2023-03-12T06:55:58;98139.34;;;-0.13;90.42
64080;BME280;51042;49.696;10.808;2023-03-12T06:58:23;98134.91;;;0.09;90.14
64080;BME280;51042;49.696;10.808;2023-03-12T07:00:49;98128.75;;;0.09;89.17
64080;BME280;51042;49.696;10.808;2023-03-12T07:03:14;98132.72;;;0.22;88.38
64080;BME280;51042;49.696;10.808;2023-03-12T07:05:42;98124.97;;;0.17;86.86
64080;BME280;51042;49.696;10.808;2023-03-12T07:08:07;98127.75;;;0.27;87.51
64080;BME280;51042;49.696;10.808;2023-03-12T07:10:32;98125.63;;;0.51;87.54
64080;BME280;51042;49.696;10.808;2023-03-12T07:12:57;98120.75;;;0.70;87.71
64080;BME280;51042;49.696;10.808;2023-03-12T07:15:22;98116.84;;;0.64;84.41
64080;BME280;51042;49.696;10.808;2023-03-12T07:17:48;98120.34;;;0.68;84.71
64080;BME280;51042;49.696;10.808;2023-03-12T07:20:13;98117.66;;;0.72;85.01
64080;BME280;51042;49.696;10.808;2023-03-12T07:22:38;98131.25;;;0.90;85.89
64080;BME280;51042;49.696;10.808;2023-03-12T07:25:03;98133.16;;;0.86;85.77
64080;BME280;51042;49.696;10.808;2023-03-12T07:27:29;98128.69;;;1.14;83.99
64080;BME280;51042;49.696;10.808;2023-03-12T07:29:54;98122.97;;;1.34;84.91
64080;BME280;51042;49.696;10.808;2023-03-12T07:32:19;98133.81;;;1.37;83.26
64080;BME280;51042;49.696;10.808;2023-03-12T07:34:44;98121.47;;;1.43;82.79
64080;BME280;51042;49.696;10.808;2023-03-12T07:37:09;98119.22;;;1.63;83.54
64080;BME280;51042;49.696;10.808;2023-03-12T07:39:35;98118.47;;;1.66;82.30
64080;BME280;51042;49.696;10.808;2023-03-12T07:42:00;98113.00;;;1.55;81.72
64080;BME280;51042;49.696;10.808;2023-03-12T07:44:25;98114.59;;;1.63;81.94
64080;BME280;51042;49.696;10.808;2023-03-12T07:46:51;98111.13;;;1.70;81.78
64080;BME280;51042;49.696;10.808;2023-03-12T07:49:16;98110.66;;;1.36;78.63
64080;BME280;51042;49.696;10.808;2023-03-12T07:51:41;98103.53;;;1.00;80.01
64080;BME280;51042;49.696;10.808;2023-03-12T07:54:06;98112.34;;;0.90;80.54
64080;BME280;51042;49.696;10.808;2023-03-12T07:56:31;98112.44;;;1.00;81.54
64080;BME280;51042;49.696;10.808;2023-03-12T07:58:57;98109.31;;;1.02;81.85
64080;BME280;51042;49.696;10.808;2023-03-12T08:01:22;98108.44;;;0.83;83.84
64080;BME280;51042;49.696;10.808;2023-03-12T08:03:49;98116.13;;;0.71;85.77
64080;BME280;51042;49.696;10.808;2023-03-12T08:06:14;98108.75;;;0.64;85.51
64080;BME280;51042;49.696;10.808;2023-03-12T08:08:39;98111.50;;;0.71;86.37
64080;BME280;51042;49.696;10.808;2023-03-12T08:11:06;98107.31;;;0.85;85.43
64080;BME280;51042;49.696;10.808;2023-03-12T08:13:31;98108.22;;;1.10;83.71
64080;BME280;51042;49.696;10.808;2023-03-12T08:15:57;98119.50;;;1.33;83.42
64080;BME280;51042;49.696;10.808;2023-03-12T08:18:22;98126.19;;;1.75;82.86
64080;BME280;51042;49.696;10.808;2023-03-12T08:20:49;98128.97;;;2.10;79.53
64080;BME280;51042;49.696;10.808;2023-03-12T08:23:15;98118.16;;;2.17;79.46
64080;BME280;51042;49.696;10.808;2023-03-12T08:25:43;98108.88;;;2.25;75.92
64080;BME280;51042;49.696;10.808;2023-03-12T08:28:08;98119.69;;;2.15;75.84
64080;BME280;51042;49.696;10.808;2023-03-12T08:30:33;98119.72;;;2.50;77.30
64080;BME280;51042;49.696;10.808;2023-03-12T08:32:58;98110.00;;;2.74;76.65
64080;BME280;51042;49.696;10.808;2023-03-12T08:35:24;98107.22;;;3.09;76.90
64080;BME280;51042;49.696;10.808;2023-03-12T08:37:49;98102.88;;;3.22;75.17
64080;BME280;51042;49.696;10.808;2023-03-12T08:40:14;98107.88;;;3.38;71.08
64080;BME280;51042;49.696;10.808;2023-03-12T08:42:40;98110.66;;;3.20;73.07
64080;BME280;51042;49.696;10.808;2023-03-12T08:45:06;98100.47;;;3.46;74.41
64080;BME280;51042;49.696;10.808;2023-03-12T08:47:31;98099.63;;;3.59;71.42
64080;BME280;51042;49.696;10.808;2023-03-12T08:49:56;98101.50;;;3.73;71.06
64080;BME280;51042;49.696;10.808;2023-03-12T08:52:22;98098.28;;;3.89;71.73
64080;BME280;51042;49.696;10.808;2023-03-12T08:54:47;98091.69;;;4.41;70.39
64080;BME280;51042;49.696;10.808;2023-03-12T08:57:12;98074.63;;;4.82;66.45
64080;BME280;51042;49.696;10.808;2023-03-12T08:59:39;98082.06;;;5.12;64.34
64080;BME280;51042;49.696;10.808;2023-03-12T09:02:04;98079.31;;;5.72;63.88
64080;BME280;51042;49.696;10.808;2023-03-12T09:04:29;98073.56;;;5.67;61.78
64080;BME280;51042;49.696;10.808;2023-03-12T09:06:55;98070.53;;;5.61;62.59
64080;BME280;51042;49.696;10.808;2023-03-12T09:09:20;98072.78;;;5.66;63.58
64080;BME280;51042;49.696;10.808;2023-03-12T09:11:45;98086.41;;;5.66;64.71
64080;BME280;51042;49.696;10.808;2023-03-12T09:14:10;98091.53;;;5.30;64.61
64080;BME280;51042;49.696;10.808;2023-03-12T09:16:35;98084.31;;;4.83;66.36
64080;BME280;51042;49.696;10.808;2023-03-12T09:19:00;98088.72;;;4.70;65.86
64080;BME280;51042;49.696;10.808;2023-03-12T09:21:26;98081.47;;;4.56;66.44
64080;BME280;51042;49.696;10.808;2023-03-12T09:23:51;98074.25;;;4.80;66.14
64080;BME280;51042;49.696;10.808;2023-03-12T09:26:16;98071.19;;;4.74;65.66
64080;BME280;51042;49.696;10.808;2023-03-12T09:28:41;98079.03;;;5.03;65.15
64080;BME280;51042;49.696;10.808;2023-03-12T09:31:08;98075.22;;;5.30;65.20
64080;BME280;51042;49.696;10.808;2023-03-12T09:33:34;98076.19;;;5.74;63.74
64080;BME280;51042;49.696;10.808;2023-03-12T09:35:59;98075.56;;;5.93;62.86
64080;BME280;51042;49.696;10.808;2023-03-12T09:38:26;98079.59;;;6.08;63.13
64080;BME280;51042;49.696;10.808;2023-03-12T09:40:51;98082.88;;;6.00;62.76
64080;BME280;51042;49.696;10.808;2023-03-12T09:43:36;98078.53;;;5.75;64.04
64080;BME280;51042;49.696;10.808;2023-03-12T09:46:03;98082.81;;;5.46;64.22
64080;BME280;51042;49.696;10.808;2023-03-12T09:48:34;98076.84;;;5.55;65.47
64080;BME280;51042;49.696;10.808;2023-03-12T09:51:21;98072.94;;;5.56;64.18
64080;BME280;51042;49.696;10.808;2023-03-12T09:53:50;98074.88;;;5.89;63.91
64080;BME280;51042;49.696;10.808;2023-03-12T09:56:17;98073.47;;;6.51;62.98
64080;BME280;51042;49.696;10.808;2023-03-12T09:58:43;98075.38;;;6.97;61.60
64080;BME280;51042;49.696;10.808;2023-03-12T10:06:21;98058.31;;;7.13;59.58
64080;BME280;51042;49.696;10.808;2023-03-12T10:09:02;98056.56;;;7.22;60.29
64080;BME280;51042;49.696;10.808;2023-03-12T10:11:34;98050.88;;;7.33;58.68
64080;BME280;51042;49.696;10.808;2023-03-12T10:14:12;98054.72;;;7.35;59.14
64080;BME280;51042;49.696;10.808;2023-03-12T10:27:00;98044.06;;;7.61;59.90
64080;BME280;51042;49.696;10.808;2023-03-12T10:29:29;98043.66;;;7.43;60.39
64080;BME280;51042;49.696;10.808;2023-03-12T10:32:13;98045.50;;;7.10;62.04
64080;BME280;51042;49.696;10.808;2023-03-12T10:37:16;98040.28;;;6.56;66.04
64080;BME280;51042;49.696;10.808;2023-03-12T10:39:42;98048.72;;;6.42;67.43
64080;BME280;51042;49.696;10.808;2023-03-12T10:42:12;98057.41;;;6.33;67.94
64080;BME280;51042;49.696;10.808;2023-03-12T10:44:38;98056.25;;;6.34;68.49
64080;BME280;51042;49.696;10.808;2023-03-12T10:47:09;98048.28;;;6.20;69.14
64080;BME280;51042;49.696;10.808;2023-03-12T10:49:38;98046.22;;;6.28;68.44
64080;BME280;51042;49.696;10.808;2023-03-12T10:52:18;98046.47;;;6.37;68.63
64080;BME280;51042;49.696;10.808;2023-03-12T10:54:44;98047.78;;;6.29;68.80
64080;BME280;51042;49.696;10.808;2023-03-12T10:57:10;98057.09;;;6.31;69.76
64080;BME280;51042;49.696;10.808;2023-03-12T10:59:37;98059.47;;;6.02;71.74
64080;BME280;51042;49.696;10.808;2023-03-12T11:02:11;98051.91;;;5.87;74.59
64080;BME280;51042;49.696;10.808;2023-03-12T11:04:51;98067.94;;;5.81;77.39
64080;BME280;51042;49.696;10.808;2023-03-12T11:12:31;98069.34;;;5.36;81.37
64080;BME280;51042;49.696;10.808;2023-03-12T11:14:57;98066.41;;;5.50;80.65
64080;BME280;51042;49.696;10.808;2023-03-12T11:17:26;98058.94;;;5.57;81.00
64080;BME280;51042;49.696;10.808;2023-03-12T11:19:52;98064.28;;;5.64;81.56
64080;BME280;51042;49.696;10.808;2023-03-12T11:22:30;98065.75;;;5.42;83.26
64080;BME280;51042;49.696;10.808;2023-03-12T11:24:58;98066.56;;;5.39;83.80
64080;BME280;51042;49.696;10.808;2023-03-12T11:27:35;98062.66;;;5.40;83.85
64080;BME280;51042;49.696;10.808;2023-03-12T11:30:03;98060.03;;;5.33;83.64
64080;BME280;51042;49.696;10.808;2023-03-12T11:34:57;98053.88;;;5.59;82.75
64080;BME280;51042;49.696;10.808;2023-03-12T11:37:28;98056.31;;;5.50;83.10
64080;BME280;51042;49.696;10.808;2023-03-12T11:40:06;98056.91;;;5.34;83.75
64080;BME280;51042;49.696;10.808;2023-03-12T11:53:05;98057.34;;;5.60;83.28
64080;BME280;51042;49.696;10.808;2023-03-12T12:01:05;98034.69;;;5.66;84.29
64080;BME280;51042;49.696;10.808;2023-03-12T12:03:49;98034.13;;;5.79;83.85
64080;BME280;51042;49.696;10.808;2023-03-12T12:06:24;98034.34;;;5.64;83.89
64080;BME280;51042;49.696;10.808;2023-03-12T12:19:26;98022.66;;;5.37;92.62
64080;BME280;51042;49.696;10.808;2023-03-12T12:22:20;98029.38;;;5.59;92.42
64080;BME280;51042;49.696;10.808;2023-03-12T12:27:26;98008.63;;;5.42;92.17
64080;BME280;51042;49.696;10.808;2023-03-12T12:35:38;98005.38;;;5.51;94.50
64080;BME280;51042;49.696;10.808;2023-03-12T12:40:54;97997.41;;;5.63;95.03
64080;BME280;51042;49.696;10.808;2023-03-12T12:45:49;97993.47;;;5.68;95.05
64080;BME280;51042;49.696;10.808;2023-03-12T12:50:41;97986.06;;;5.68;94.12
64080;BME280;51042;49.696;10.808;2023-03-12T12:55:38;97982.88;;;5.73;93.56
64080;BME280;51042;49.696;10.808;2023-03-12T12:58:06;97989.50;;;5.72;94.62
64080;BME280;51042;49.696;10.808;2023-03-12T13:00:39;97986.47;;;5.67;97.02
64080;BME280;51042;49.696;10.808;2023-03-12T13:03:10;97986.31;;;5.51;100.00
64080;BME280;51042;49.696;10.808;2023-03-12T13:08:04;97974.91;;;5.36;100.00
64080;BME280;51042;49.696;10.808;2023-03-12T13:12:57;97964.25;;;5.45;100.00
64080;BME280;51042;49.696;10.808;2023-03-12T13:20:32;97946.31;;;5.98;100.00
64080;BME280;51042;49.696;10.808;2023-03-12T13:30:56;97954.84;;;5.77;100.00
64080;BME280;51042;49.696;10.808;2023-03-12T13:33:36;97962.22;;;5.76;100.00
64080;BME280;51042;49.696;10.808;2023-03-12T13:36:04;97962.13;;;5.83;100.00
64080;BME280;51042;49.696;10.808;2023-03-12T13:38:35;97964.72;;;5.90;100.00
64080;BME280;51042;49.696;10.808;2023-03-12T13:41:00;97958.09;;;5.91;100.00
64080;BME280;51042;49.696;10.808;2023-03-12T13:43:59;97960.44;;;5.93;100.00
64080;BME280;51042;49.696;10.808;2023-03-12T13:46:38;97964.31;;;5.92;100.00
64080;BME280;51042;49.696;10.808;2023-03-12T13:49:05;97954.09;;;5.99;100.00
64080;BME280;51042;49.696;10.808;2023-03-12T13:51:34;97962.78;;;6.14;100.00
64080;BME280;51042;49.696;10.808;2023-03-12T13:54:11;97961.53;;;6.19;100.00
64080;BME280;51042;49.696;10.808;2023-03-12T13:56:39;97961.47;;;6.22;100.00
64080;BME280;51042;49.696;10.808;2023-03-12T13:59:13;97951.72;;;6.25;100.00
64080;BME280;51042;49.696;10.808;2023-03-12T14:01:40;97955.41;;;6.34;100.00
64080;BME280;51042;49.696;10.808;2023-03-12T14:04:11;97966.97;;;6.42;100.00
64080;BME280;51042;49.696;10.808;2023-03-12T14:07:00;97963.31;;;6.29;100.00
64080;BME280;51042;49.696;10.808;2023-03-12T14:12:05;97961.97;;;6.17;100.00
64080;BME280;51042;49.696;10.808;2023-03-12T14:17:09;97965.69;;;6.03;100.00
64080;BME280;51042;49.696;10.808;2023-03-12T14:19:38;97959.91;;;6.01;100.00
64080;BME280;51042;49.696;10.808;2023-03-12T14:22:05;97961.00;;;6.04;100.00
64080;BME280;51042;49.696;10.808;2023-03-12T14:26:56;97949.72;;;6.05;100.00
64080;BME280;51042;49.696;10.808;2023-03-12T14:29:24;97955.03;;;6.12;100.00